sensor_id;sensor_type;location;lat;lon;timestamp;P1;durP1;ratioP1;P2;durP2;ratioP2
15183;SDS011;7693;49.266;7.104;2022-07-06T05:05:52;5.15;;;4.80;;
15183;SDS011;7693;49.266;7.104;2022-07-06T05:08:18;5.28;;;4.20;;
15183;SDS011;7693;49.266;7.104;2022-07-06T05:10:43;8.27;;;4.88;;
15183;SDS011;7693;49.266;7.104;2022-07-06T05:13:09;6.32;;;4.10;;
15183;SDS011;7693;49.266;7.104;2022-07-06T05:15:35;4.07;;;3.78;;
15183;SDS011;7693;49.266;7.104;2022-07-06T05:18:00;4.57;;;3.78;;
15183;SDS011;7693;49.266;7.104;2022-07-06T05:20:26;4.82;;;3.75;;
15183;SDS011;7693;49.266;7.104;2022-07-06T05:22:51;7.20;;;3.17;;
15183;SDS011;7693;49.266;7.104;2022-07-06T05:25:17;3.33;;;2.67;;
15183;SDS011;7693;49.266;7.104;2022-07-06T05:27:43;2.60;;;2.40;;
15183;SDS011;7693;49.266;7.104;2022-07-06T05:30:09;6.95;;;3.08;;
15183;SDS011;7693;49.266;7.104;2022-07-06T05:32:35;4.60;;;2.25;;
15183;SDS011;7693;49.266;7.104;2022-07-06T05:35:00;2.35;;;2.15;;
15183;SDS011;7693;49.266;7.104;2022-07-06T05:37:26;2.38;;;2.28;;
15183;SDS011;7693;49.266;7.104;2022-07-06T05:39:52;2.28;;;2.05;;
15183;SDS011;7693;49.266;7.104;2022-07-06T05:42:17;5.07;;;2.30;;
15183;SDS011;7693;49.266;7.104;2022-07-06T05:44:43;2.92;;;2.28;;
15183;SDS011;7693;49.266;7.104;2022-07-06T05:47:08;2.47;;;2.28;;
15183;SDS011;7693;49.266;7.104;2022-07-06T05:49:53;1.98;;;1.85;;
15183;SDS011;7693;49.266;7.104;2022-07-06T05:52:37;2.38;;;2.05;;
15183;SDS011;7693;49.266;7.104;2022-07-06T05:55:03;3.42;;;2.15;;
15183;SDS011;7693;49.266;7.104;2022-07-06T05:57:29;2.00;;;1.90;;
15183;SDS011;7693;49.266;7.104;2022-07-06T05:59:55;2.13;;;2.03;;
15183;SDS011;7693;49.266;7.104;2022-07-06T06:02:20;2.35;;;2.17;;
15183;SDS011;7693;49.266;7.104;2022-07-06T06:04:46;1.80;;;1.70;;
15183;SDS011;7693;49.266;7.104;2022-07-06T06:07:12;2.00;;;1.83;;
15183;SDS011;7693;49.266;7.104;2022-07-06T06:09:37;4.60;;;2.00;;
15183;SDS011;7693;49.266;7.104;2022-07-06T06:12:03;1.98;;;1.75;;
15183;SDS011;7693;49.266;7.104;2022-07-06T06:14:29;1.88;;;1.70;;
15183;SDS011;7693;49.266;7.104;2022-07-06T06:16:54;2.15;;;2.00;;
15183;SDS011;7693;49.266;7.104;2022-07-06T06:19:20;2.40;;;2.20;;
15183;SDS011;7693;49.266;7.104;2022-07-06T06:21:45;4.35;;;1.70;;
15183;SDS011;7693;49.266;7.104;2022-07-06T06:24:11;4.00;;;2.28;;
15183;SDS011;7693;49.266;7.104;2022-07-06T06:26:37;2.08;;;1.85;;
15183;SDS011;7693;49.266;7.104;2022-07-06T06:29:02;3.05;;;1.73;;
15183;SDS011;7693;49.266;7.104;2022-07-06T06:31:28;2.40;;;2.00;;
15183;SDS011;7693;49.266;7.104;2022-07-06T06:33:53;3.20;;;2.15;;
15183;SDS011;7693;49.266;7.104;2022-07-06T06:36:19;2.42;;;2.17;;
15183;SDS011;7693;49.266;7.104;2022-07-06T06:38:45;2.00;;;1.80;;
15183;SDS011;7693;49.266;7.104;2022-07-06T06:41:10;2.28;;;1.83;;
15183;SDS011;7693;49.266;7.104;2022-07-06T06:43:36;1.70;;;1.60;;
15183;SDS011;7693;49.266;7.104;2022-07-06T06:46:02;3.47;;;1.75;;
15183;SDS011;7693;49.266;7.104;2022-07-06T06:48:28;3.60;;;1.90;;
15183;SDS011;7693;49.266;7.104;2022-07-06T06:50:56;2.00;;;1.80;;
15183;SDS011;7693;49.266;7.104;2022-07-06T06:53:22;3.03;;;2.15;;
15183;SDS011;7693;49.266;7.104;2022-07-06T06:55:48;1.88;;;1.73;;
15183;SDS011;7693;49.266;7.104;2022-07-06T06:58:14;2.70;;;1.70;;
15183;SDS011;7693;49.266;7.104;2022-07-06T07:00:39;2.03;;;2.00;;
15183;SDS011;7693;49.266;7.104;2022-07-06T07:03:05;2.20;;;2.00;;
15183;SDS011;7693;49.266;7.104;2022-07-06T07:05:31;1.70;;;1.60;;
15183;SDS011;7693;49.266;7.104;2022-07-06T07:07:56;2.67;;;1.80;;
15183;SDS011;7693;49.266;7.104;2022-07-06T07:10:24;1.83;;;1.60;;
15183;SDS011;7693;49.266;7.104;2022-07-06T07:12:51;4.28;;;1.92;;
15183;SDS011;7693;49.266;7.104;2022-07-06T07:15:17;2.80;;;1.92;;
15183;SDS011;7693;49.266;7.104;2022-07-06T07:17:42;2.00;;;1.70;;
15183;SDS011;7693;49.266;7.104;2022-07-06T07:20:08;4.03;;;2.20;;
15183;SDS011;7693;49.266;7.104;2022-07-06T07:22:34;2.25;;;1.73;;
15183;SDS011;7693;49.266;7.104;2022-07-06T07:25:00;4.18;;;1.65;;
15183;SDS011;7693;49.266;7.104;2022-07-06T07:27:26;3.95;;;2.03;;
15183;SDS011;7693;49.266;7.104;2022-07-06T07:29:51;1.58;;;1.48;;
15183;SDS011;7693;49.266;7.104;2022-07-06T07:32:18;6.25;;;1.75;;
15183;SDS011;7693;49.266;7.104;2022-07-06T07:34:44;2.15;;;1.98;;
15183;SDS011;7693;49.266;7.104;2022-07-06T07:37:10;1.90;;;1.80;;
15183;SDS011;7693;49.266;7.104;2022-07-06T07:39:36;2.60;;;2.13;;
15183;SDS011;7693;49.266;7.104;2022-07-06T07:42:01;2.20;;;2.00;;
15183;SDS011;7693;49.266;7.104;2022-07-06T07:44:27;3.35;;;2.05;;
15183;SDS011;7693;49.266;7.104;2022-07-06T07:46:53;1.60;;;1.50;;
15183;SDS011;7693;49.266;7.104;2022-07-06T07:49:19;2.13;;;1.80;;
15183;SDS011;7693;49.266;7.104;2022-07-06T07:51:46;2.35;;;1.52;;
15183;SDS011;7693;49.266;7.104;2022-07-06T07:54:12;1.75;;;1.65;;
15183;SDS011;7693;49.266;7.104;2022-07-06T07:56:38;2.55;;;1.67;;
15183;SDS011;7693;49.266;7.104;2022-07-06T07:59:05;2.13;;;1.80;;
15183;SDS011;7693;49.266;7.104;2022-07-06T08:01:31;1.60;;;1.50;;
15183;SDS011;7693;49.266;7.104;2022-07-06T08:03:57;2.35;;;1.58;;
15183;SDS011;7693;49.266;7.104;2022-07-06T08:06:23;3.45;;;1.70;;
15183;SDS011;7693;49.266;7.104;2022-07-06T08:08:49;3.85;;;2.33;;
15183;SDS011;7693;49.266;7.104;2022-07-06T08:11:15;2.83;;;1.77;;
15183;SDS011;7693;49.266;7.104;2022-07-06T08:13:41;2.70;;;1.63;;
15183;SDS011;7693;49.266;7.104;2022-07-06T08:16:07;2.10;;;1.90;;
15183;SDS011;7693;49.266;7.104;2022-07-06T08:18:34;3.90;;;2.00;;
15183;SDS011;7693;49.266;7.104;2022-07-06T08:21:00;2.30;;;1.77;;
15183;SDS011;7693;49.266;7.104;2022-07-06T08:23:26;2.97;;;1.95;;
15183;SDS011;7693;49.266;7.104;2022-07-06T08:25:52;2.22;;;1.77;;
15183;SDS011;7693;49.266;7.104;2022-07-06T08:28:17;3.22;;;1.85;;
15183;SDS011;7693;49.266;7.104;2022-07-06T08:30:43;3.10;;;1.75;;
15183;SDS011;7693;49.266;7.104;2022-07-06T08:33:09;2.50;;;1.88;;
15183;SDS011;7693;49.266;7.104;2022-07-06T08:35:35;2.92;;;1.70;;
15183;SDS011;7693;49.266;7.104;2022-07-06T08:38:00;3.78;;;1.65;;
15183;SDS011;7693;49.266;7.104;2022-07-06T08:40:27;2.58;;;2.00;;
15183;SDS011;7693;49.266;7.104;2022-07-06T08:42:59;1.98;;;1.88;;
15183;SDS011;7693;49.266;7.104;2022-07-06T08:45:26;2.00;;;1.90;;
15183;SDS011;7693;49.266;7.104;2022-07-06T08:47:53;4.45;;;2.00;;
15183;SDS011;7693;49.266;7.104;2022-07-06T08:50:19;2.10;;;1.90;;
15183;SDS011;7693;49.266;7.104;2022-07-06T08:52:46;2.10;;;1.90;;
15183;SDS011;7693;49.266;7.104;2022-07-06T08:55:13;1.95;;;1.77;;
15183;SDS011;7693;49.266;7.104;2022-07-06T08:57:39;2.72;;;2.03;;
15183;SDS011;7693;49.266;7.104;2022-07-06T09:00:08;1.98;;;1.90;;
15183;SDS011;7693;49.266;7.104;2022-07-06T09:02:34;2.00;;;1.90;;
15183;SDS011;7693;49.266;7.104;2022-07-06T09:05:02;2.20;;;2.00;;
15183;SDS011;7693;49.266;7.104;2022-07-06T09:07:28;2.45;;;2.25;;
15183;SDS011;7693;49.266;7.104;2022-07-06T09:09:55;2.10;;;1.90;;
15183;SDS011;7693;49.266;7.104;2022-07-06T09:12:22;2.75;;;1.90;;
15183;SDS011;7693;49.266;7.104;2022-07-06T09:14:51;2.22;;;1.90;;
15183;SDS011;7693;49.266;7.104;2022-07-06T09:17:19;2.10;;;1.80;;
15183;SDS011;7693;49.266;7.104;2022-07-06T09:19:45;3.92;;;1.80;;
15183;SDS011;7693;49.266;7.104;2022-07-06T09:22:11;3.53;;;1.73;;
15183;SDS011;7693;49.266;7.104;2022-07-06T09:25:05;3.25;;;2.17;;
15183;SDS011;7693;49.266;7.104;2022-07-06T09:27:36;2.10;;;1.75;;
15183;SDS011;7693;49.266;7.104;2022-07-06T09:30:12;2.05;;;1.90;;
15183;SDS011;7693;49.266;7.104;2022-07-06T09:32:43;4.63;;;1.88;;
15183;SDS011;7693;49.266;7.104;2022-07-06T09:35:21;1.75;;;1.63;;
15183;SDS011;7693;49.266;7.104;2022-07-06T09:40:37;3.83;;;1.77;;
15183;SDS011;7693;49.266;7.104;2022-07-06T09:43:07;1.65;;;1.55;;
15183;SDS011;7693;49.266;7.104;2022-07-06T09:45:48;4.13;;;1.90;;
15183;SDS011;7693;49.266;7.104;2022-07-06T09:48:23;4.47;;;1.80;;
15183;SDS011;7693;49.266;7.104;2022-07-06T09:50:50;3.30;;;1.70;;
15183;SDS011;7693;49.266;7.104;2022-07-06T09:53:24;1.63;;;1.40;;
15183;SDS011;7693;49.266;7.104;2022-07-06T09:55:51;1.90;;;1.80;;
15183;SDS011;7693;49.266;7.104;2022-07-06T09:58:19;4.15;;;1.75;;
15183;SDS011;7693;49.266;7.104;2022-07-06T10:00:46;3.83;;;2.17;;
15183;SDS011;7693;49.266;7.104;2022-07-06T10:03:13;8.00;;;1.60;;
15183;SDS011;7693;49.266;7.104;2022-07-06T10:05:41;4.28;;;2.00;;
15183;SDS011;7693;49.266;7.104;2022-07-06T10:08:11;1.70;;;1.60;;
15183;SDS011;7693;49.266;7.104;2022-07-06T10:10:37;2.67;;;1.70;;
15183;SDS011;7693;49.266;7.104;2022-07-06T10:13:04;1.63;;;1.50;;
15183;SDS011;7693;49.266;7.104;2022-07-06T10:15:31;2.55;;;1.55;;
15183;SDS011;7693;49.266;7.104;2022-07-06T10:18:01;4.43;;;1.50;;
15183;SDS011;7693;49.266;7.104;2022-07-06T10:20:29;1.40;;;1.30;;
15183;SDS011;7693;49.266;7.104;2022-07-06T10:23:02;2.42;;;1.52;;
15183;SDS011;7693;49.266;7.104;2022-07-06T10:25:29;2.65;;;1.70;;
15183;SDS011;7693;49.266;7.104;2022-07-06T10:27:56;1.48;;;1.48;;
15183;SDS011;7693;49.266;7.104;2022-07-06T10:30:22;3.60;;;1.70;;
15183;SDS011;7693;49.266;7.104;2022-07-06T10:32:49;2.13;;;1.52;;
15183;SDS011;7693;49.266;7.104;2022-07-06T10:35:16;1.85;;;1.52;;
15183;SDS011;7693;49.266;7.104;2022-07-06T10:37:43;2.30;;;1.67;;
15183;SDS011;7693;49.266;7.104;2022-07-06T10:40:10;3.05;;;1.88;;
15183;SDS011;7693;49.266;7.104;2022-07-06T10:42:57;1.58;;;1.48;;
15183;SDS011;7693;49.266;7.104;2022-07-06T10:48:35;2.20;;;1.60;;
15183;SDS011;7693;49.266;7.104;2022-07-06T10:50:50;1.55;;;1.45;;
15183;SDS011;7693;49.266;7.104;2022-07-06T10:53:20;2.15;;;1.40;;
15183;SDS011;7693;49.266;7.104;2022-07-06T10:55:55;2.78;;;1.67;;
15183;SDS011;7693;49.266;7.104;2022-07-06T10:58:34;2.80;;;1.70;;
15183;SDS011;7693;49.266;7.104;2022-07-06T11:01:05;2.75;;;1.88;;
15183;SDS011;7693;49.266;7.104;2022-07-06T11:06:05;2.38;;;1.45;;
15183;SDS011;7693;49.266;7.104;2022-07-06T11:08:44;1.33;;;1.30;;
15183;SDS011;7693;49.266;7.104;2022-07-06T11:13:56;3.35;;;1.48;;
15183;SDS011;7693;49.266;7.104;2022-07-06T11:16:32;1.65;;;1.20;;
15183;SDS011;7693;49.266;7.104;2022-07-06T11:24:01;1.55;;;1.45;;
15183;SDS011;7693;49.266;7.104;2022-07-06T11:26:30;2.65;;;1.70;;
15183;SDS011;7693;49.266;7.104;2022-07-06T11:28:55;2.83;;;1.55;;
15183;SDS011;7693;49.266;7.104;2022-07-06T11:31:26;1.50;;;1.50;;
15183;SDS011;7693;49.266;7.104;2022-07-06T11:33:52;1.50;;;1.40;;
15183;SDS011;7693;49.266;7.104;2022-07-06T11:36:19;1.52;;;1.40;;
15183;SDS011;7693;49.266;7.104;2022-07-06T11:38:46;1.23;;;1.23;;
15183;SDS011;7693;49.266;7.104;2022-07-06T11:41:14;2.63;;;1.50;;
15183;SDS011;7693;49.266;7.104;2022-07-06T11:43:44;3.10;;;1.40;;
15183;SDS011;7693;49.266;7.104;2022-07-06T11:49:03;1.58;;;1.40;;
15183;SDS011;7693;49.266;7.104;2022-07-06T11:51:37;1.20;;;1.10;;
15183;SDS011;7693;49.266;7.104;2022-07-06T11:54:08;2.17;;;1.40;;
15183;SDS011;7693;49.266;7.104;2022-07-06T11:56:35;1.80;;;1.40;;
15183;SDS011;7693;49.266;7.104;2022-07-06T11:59:01;1.33;;;1.27;;
15183;SDS011;7693;49.266;7.104;2022-07-06T12:01:28;1.73;;;1.27;;
15183;SDS011;7693;49.266;7.104;2022-07-06T12:03:59;1.67;;;1.30;;
15183;SDS011;7693;49.266;7.104;2022-07-06T12:06:28;1.95;;;1.30;;
15183;SDS011;7693;49.266;7.104;2022-07-06T12:08:56;2.55;;;1.40;;
15183;SDS011;7693;49.266;7.104;2022-07-06T12:13:54;1.50;;;1.40;;
15183;SDS011;7693;49.266;7.104;2022-07-06T12:16:21;1.50;;;1.40;;
15183;SDS011;7693;49.266;7.104;2022-07-06T12:18:53;1.40;;;1.30;;
15183;SDS011;7693;49.266;7.104;2022-07-06T12:21:19;2.17;;;1.60;;
15183;SDS011;7693;49.266;7.104;2022-07-06T12:23:49;2.85;;;1.38;;
15183;SDS011;7693;49.266;7.104;2022-07-06T12:26:16;1.70;;;1.35;;
15183;SDS011;7693;49.266;7.104;2022-07-06T12:28:43;1.88;;;1.30;;
15183;SDS011;7693;49.266;7.104;2022-07-06T12:31:10;2.28;;;1.45;;
15183;SDS011;7693;49.266;7.104;2022-07-06T12:33:36;2.95;;;1.20;;
15183;SDS011;7693;49.266;7.104;2022-07-06T12:36:09;2.50;;;1.40;;
15183;SDS011;7693;49.266;7.104;2022-07-06T12:38:35;1.75;;;1.20;;
15183;SDS011;7693;49.266;7.104;2022-07-06T12:41:08;2.95;;;1.10;;
15183;SDS011;7693;49.266;7.104;2022-07-06T12:43:35;1.83;;;1.30;;
15183;SDS011;7693;49.266;7.104;2022-07-06T12:49:13;3.13;;;1.33;;
15183;SDS011;7693;49.266;7.104;2022-07-06T12:51:48;2.47;;;1.25;;
15183;SDS011;7693;49.266;7.104;2022-07-06T12:54:18;1.60;;;1.50;;
15183;SDS011;7693;49.266;7.104;2022-07-06T12:57:01;3.90;;;1.63;;
15183;SDS011;7693;49.266;7.104;2022-07-06T12:59:31;1.80;;;1.58;;
15183;SDS011;7693;49.266;7.104;2022-07-06T13:01:58;2.05;;;1.05;;
15183;SDS011;7693;49.266;7.104;2022-07-06T13:04:24;1.30;;;1.30;;
15183;SDS011;7693;49.266;7.104;2022-07-06T13:06:51;1.80;;;1.05;;
15183;SDS011;7693;49.266;7.104;2022-07-06T13:09:17;1.55;;;1.38;;
15183;SDS011;7693;49.266;7.104;2022-07-06T13:11:44;1.60;;;1.50;;
15183;SDS011;7693;49.266;7.104;2022-07-06T13:14:11;1.40;;;1.30;;
15183;SDS011;7693;49.266;7.104;2022-07-06T13:16:36;1.48;;;1.30;;
15183;SDS011;7693;49.266;7.104;2022-07-06T13:19:02;5.55;;;1.27;;
15183;SDS011;7693;49.266;7.104;2022-07-06T13:21:28;1.52;;;1.40;;
15183;SDS011;7693;49.266;7.104;2022-07-06T13:23:53;1.38;;;1.25;;
15183;SDS011;7693;49.266;7.104;2022-07-06T13:26:19;1.30;;;1.20;;
15183;SDS011;7693;49.266;7.104;2022-07-06T13:28:45;4.53;;;1.35;;
15183;SDS011;7693;49.266;7.104;2022-07-06T13:31:11;1.70;;;1.05;;
15183;SDS011;7693;49.266;7.104;2022-07-06T13:33:36;2.25;;;1.13;;
15183;SDS011;7693;49.266;7.104;2022-07-06T13:36:02;3.40;;;1.42;;
15183;SDS011;7693;49.266;7.104;2022-07-06T13:38:28;6.80;;;1.38;;
15183;SDS011;7693;49.266;7.104;2022-07-06T13:40:54;1.48;;;1.30;;
15183;SDS011;7693;49.266;7.104;2022-07-06T13:43:19;1.27;;;1.00;;
15183;SDS011;7693;49.266;7.104;2022-07-06T13:45:45;1.58;;;0.95;;
15183;SDS011;7693;49.266;7.104;2022-07-06T13:48:11;1.33;;;1.10;;
15183;SDS011;7693;49.266;7.104;2022-07-06T13:50:37;1.80;;;1.20;;
15183;SDS011;7693;49.266;7.104;2022-07-06T13:53:03;1.60;;;1.15;;
15183;SDS011;7693;49.266;7.104;2022-07-06T13:55:29;3.72;;;1.30;;
15183;SDS011;7693;49.266;7.104;2022-07-06T13:57:55;3.47;;;1.30;;
15183;SDS011;7693;49.266;7.104;2022-07-06T14:00:21;1.55;;;1.30;;
15183;SDS011;7693;49.266;7.104;2022-07-06T14:02:47;1.35;;;1.23;;
15183;SDS011;7693;49.266;7.104;2022-07-06T14:05:12;3.03;;;1.30;;
15183;SDS011;7693;49.266;7.104;2022-07-06T14:07:38;1.23;;;1.13;;
15183;SDS011;7693;49.266;7.104;2022-07-06T14:10:04;3.45;;;1.10;;
15183;SDS011;7693;49.266;7.104;2022-07-06T14:12:30;1.48;;;1.15;;
15183;SDS011;7693;49.266;7.104;2022-07-06T14:14:56;6.93;;;1.60;;
15183;SDS011;7693;49.266;7.104;2022-07-06T14:17:22;4.78;;;1.30;;
15183;SDS011;7693;49.266;7.104;2022-07-06T14:19:48;4.05;;;1.30;;
15183;SDS011;7693;49.266;7.104;2022-07-06T14:22:14;2.10;;;0.93;;
15183;SDS011;7693;49.266;7.104;2022-07-06T14:24:40;2.63;;;1.10;;
15183;SDS011;7693;49.266;7.104;2022-07-06T14:27:06;1.20;;;1.08;;
15183;SDS011;7693;49.266;7.104;2022-07-06T14:29:32;5.28;;;1.20;;
15183;SDS011;7693;49.266;7.104;2022-07-06T14:31:57;2.35;;;0.93;;
15183;SDS011;7693;49.266;7.104;2022-07-06T14:34:23;1.77;;;1.33;;
15183;SDS011;7693;49.266;7.104;2022-07-06T14:36:49;1.40;;;1.17;;
15183;SDS011;7693;49.266;7.104;2022-07-06T14:39:15;2.20;;;1.10;;
15183;SDS011;7693;49.266;7.104;2022-07-06T14:41:41;1.52;;;1.25;;
15183;SDS011;7693;49.266;7.104;2022-07-06T14:44:07;2.55;;;1.17;;
15183;SDS011;7693;49.266;7.104;2022-07-06T14:46:33;2.25;;;1.13;;
15183;SDS011;7693;49.266;7.104;2022-07-06T14:48:59;1.98;;;1.10;;
15183;SDS011;7693;49.266;7.104;2022-07-06T14:51:25;2.08;;;1.60;;
15183;SDS011;7693;49.266;7.104;2022-07-06T14:53:51;1.60;;;1.08;;
15183;SDS011;7693;49.266;7.104;2022-07-06T14:56:17;2.13;;;1.05;;
15183;SDS011;7693;49.266;7.104;2022-07-06T14:58:42;1.70;;;1.42;;
15183;SDS011;7693;49.266;7.104;2022-07-06T15:01:08;2.17;;;1.38;;
15183;SDS011;7693;49.266;7.104;2022-07-06T15:03:34;1.23;;;1.23;;
15183;SDS011;7693;49.266;7.104;2022-07-06T15:05:59;1.40;;;1.30;;
15183;SDS011;7693;49.266;7.104;2022-07-06T15:08:25;2.00;;;1.23;;
15183;SDS011;7693;49.266;7.104;2022-07-06T15:10:50;1.77;;;1.08;;
15183;SDS011;7693;49.266;7.104;2022-07-06T15:13:16;1.00;;;1.00;;
15183;SDS011;7693;49.266;7.104;2022-07-06T15:15:42;2.05;;;1.10;;
15183;SDS011;7693;49.266;7.104;2022-07-06T15:18:08;4.18;;;1.17;;
15183;SDS011;7693;49.266;7.104;2022-07-06T15:20:33;1.08;;;1.08;;
15183;SDS011;7693;49.266;7.104;2022-07-06T15:22:59;1.30;;;1.20;;
15183;SDS011;7693;49.266;7.104;2022-07-06T15:25:25;1.02;;;1.02;;
15183;SDS011;7693;49.266;7.104;2022-07-06T15:27:51;1.25;;;1.23;;
15183;SDS011;7693;49.266;7.104;2022-07-06T15:30:17;1.85;;;1.10;;
15183;SDS011;7693;49.266;7.104;2022-07-06T15:32:43;1.05;;;1.05;;
15183;SDS011;7693;49.266;7.104;2022-07-06T15:35:09;1.30;;;1.10;;
15183;SDS011;7693;49.266;7.104;2022-07-06T15:37:35;2.33;;;1.00;;
15183;SDS011;7693;49.266;7.104;2022-07-06T15:40:01;2.03;;;1.00;;
15183;SDS011;7693;49.266;7.104;2022-07-06T15:42:28;1.85;;;1.13;;
15183;SDS011;7693;49.266;7.104;2022-07-06T15:44:53;1.88;;;1.20;;
15183;SDS011;7693;49.266;7.104;2022-07-06T15:47:19;2.05;;;1.30;;
15183;SDS011;7693;49.266;7.104;2022-07-06T15:49:48;1.38;;;1.00;;
15183;SDS011;7693;49.266;7.104;2022-07-06T15:52:14;2.67;;;1.20;;
15183;SDS011;7693;49.266;7.104;2022-07-06T15:54:40;3.10;;;1.20;;
15183;SDS011;7693;49.266;7.104;2022-07-06T15:57:06;8.43;;;1.38;;
15183;SDS011;7693;49.266;7.104;2022-07-06T15:59:32;3.22;;;1.20;;
15183;SDS011;7693;49.266;7.104;2022-07-06T16:01:57;1.88;;;1.30;;
15183;SDS011;7693;49.266;7.104;2022-07-06T16:04:23;1.42;;;1.13;;
15183;SDS011;7693;49.266;7.104;2022-07-06T16:06:49;1.20;;;1.10;;
15183;SDS011;7693;49.266;7.104;2022-07-06T16:09:15;1.38;;;1.30;;
15183;SDS011;7693;49.266;7.104;2022-07-06T16:11:41;1.75;;;1.00;;
15183;SDS011;7693;49.266;7.104;2022-07-06T16:14:07;1.35;;;1.17;;
15183;SDS011;7693;49.266;7.104;2022-07-06T16:16:33;4.55;;;2.90;;
15183;SDS011;7693;49.266;7.104;2022-07-06T16:18:59;3.28;;;1.73;;
15183;SDS011;7693;49.266;7.104;2022-07-06T16:21:25;3.83;;;1.58;;
15183;SDS011;7693;49.266;7.104;2022-07-06T16:23:50;1.23;;;1.00;;
15183;SDS011;7693;49.266;7.104;2022-07-06T16:26:16;1.10;;;1.00;;
15183;SDS011;7693;49.266;7.104;2022-07-06T16:28:42;2.50;;;1.30;;
15183;SDS011;7693;49.266;7.104;2022-07-06T16:31:07;1.30;;;1.08;;
15183;SDS011;7693;49.266;7.104;2022-07-06T16:33:33;1.67;;;1.58;;
15183;SDS011;7693;49.266;7.104;2022-07-06T16:36:00;3.22;;;1.98;;
15183;SDS011;7693;49.266;7.104;2022-07-06T16:38:27;1.40;;;1.30;;
15183;SDS011;7693;49.266;7.104;2022-07-06T16:40:52;4.03;;;1.20;;
15183;SDS011;7693;49.266;7.104;2022-07-06T16:43:18;1.27;;;1.17;;
15183;SDS011;7693;49.266;7.104;2022-07-06T16:45:44;1.27;;;1.17;;
15183;SDS011;7693;49.266;7.104;2022-07-06T16:48:09;2.97;;;1.70;;
15183;SDS011;7693;49.266;7.104;2022-07-06T16:50:35;7.70;;;1.30;;
15183;SDS011;7693;49.266;7.104;2022-07-06T16:53:01;1.20;;;1.10;;
15183;SDS011;7693;49.266;7.104;2022-07-06T16:55:27;1.30;;;1.30;;
15183;SDS011;7693;49.266;7.104;2022-07-06T16:57:53;1.65;;;1.38;;
15183;SDS011;7693;49.266;7.104;2022-07-06T17:00:19;1.88;;;1.48;;
15183;SDS011;7693;49.266;7.104;2022-07-06T17:02:45;1.25;;;1.25;;
15183;SDS011;7693;49.266;7.104;2022-07-06T17:05:11;3.75;;;1.20;;
15183;SDS011;7693;49.266;7.104;2022-07-06T17:07:37;1.48;;;1.38;;
15183;SDS011;7693;49.266;7.104;2022-07-06T17:10:02;1.20;;;1.20;;
15183;SDS011;7693;49.266;7.104;2022-07-06T17:12:28;4.38;;;1.63;;
15183;SDS011;7693;49.266;7.104;2022-07-06T17:14:57;4.35;;;1.30;;
15183;SDS011;7693;49.266;7.104;2022-07-06T17:17:24;1.33;;;1.25;;
15183;SDS011;7693;49.266;7.104;2022-07-06T17:19:50;2.88;;;1.30;;
15183;SDS011;7693;49.266;7.104;2022-07-06T17:22:16;1.48;;;1.20;;
15183;SDS011;7693;49.266;7.104;2022-07-06T17:24:44;3.33;;;1.58;;
15183;SDS011;7693;49.266;7.104;2022-07-06T17:27:10;1.30;;;1.20;;
15183;SDS011;7693;49.266;7.104;2022-07-06T17:29:36;4.07;;;1.38;;
15183;SDS011;7693;49.266;7.104;2022-07-06T17:32:01;2.00;;;1.23;;
15183;SDS011;7693;49.266;7.104;2022-07-06T17:34:27;2.38;;;1.23;;
15183;SDS011;7693;49.266;7.104;2022-07-06T17:36:53;1.77;;;1.40;;
15183;SDS011;7693;49.266;7.104;2022-07-06T17:39:18;1.65;;;1.02;;
15183;SDS011;7693;49.266;7.104;2022-07-06T17:41:44;1.38;;;1.27;;
15183;SDS011;7693;49.266;7.104;2022-07-06T17:44:10;2.22;;;1.33;;
15183;SDS011;7693;49.266;7.104;2022-07-06T17:46:36;3.20;;;1.63;;
15183;SDS011;7693;49.266;7.104;2022-07-06T17:49:02;1.42;;;1.33;;
15183;SDS011;7693;49.266;7.104;2022-07-06T17:51:29;1.83;;;1.50;;
15183;SDS011;7693;49.266;7.104;2022-07-06T17:53:55;1.70;;;1.40;;
15183;SDS011;7693;49.266;7.104;2022-07-06T17:56:21;1.60;;;1.50;;
15183;SDS011;7693;49.266;7.104;2022-07-06T17:58:47;1.80;;;1.70;;
15183;SDS011;7693;49.266;7.104;2022-07-06T18:01:13;2.05;;;1.35;;
15183;SDS011;7693;49.266;7.104;2022-07-06T18:03:39;4.82;;;1.58;;
15183;SDS011;7693;49.266;7.104;2022-07-06T18:06:05;1.83;;;1.60;;
15183;SDS011;7693;49.266;7.104;2022-07-06T18:08:31;1.98;;;1.40;;
15183;SDS011;7693;49.266;7.104;2022-07-06T18:10:57;2.63;;;1.50;;
15183;SDS011;7693;49.266;7.104;2022-07-06T18:13:25;1.80;;;1.20;;
15183;SDS011;7693;49.266;7.104;2022-07-06T18:15:51;1.77;;;1.35;;
15183;SDS011;7693;49.266;7.104;2022-07-06T18:18:18;1.42;;;1.33;;
15183;SDS011;7693;49.266;7.104;2022-07-06T18:20:44;1.33;;;1.33;;
15183;SDS011;7693;49.266;7.104;2022-07-06T18:23:09;5.15;;;1.20;;
15183;SDS011;7693;49.266;7.104;2022-07-06T18:25:36;1.80;;;1.25;;
15183;SDS011;7693;49.266;7.104;2022-07-06T18:28:02;2.90;;;1.50;;
15183;SDS011;7693;49.266;7.104;2022-07-06T18:30:29;1.75;;;1.38;;
15183;SDS011;7693;49.266;7.104;2022-07-06T18:32:55;2.47;;;1.70;;
15183;SDS011;7693;49.266;7.104;2022-07-06T18:35:21;3.72;;;1.40;;
15183;SDS011;7693;49.266;7.104;2022-07-06T18:37:47;1.63;;;1.30;;
15183;SDS011;7693;49.266;7.104;2022-07-06T18:40:13;1.30;;;1.20;;
15183;SDS011;7693;49.266;7.104;2022-07-06T18:42:39;2.35;;;1.67;;
15183;SDS011;7693;49.266;7.104;2022-07-06T18:45:06;2.75;;;1.27;;
15183;SDS011;7693;49.266;7.104;2022-07-06T18:47:32;1.67;;;1.30;;
15183;SDS011;7693;49.266;7.104;2022-07-06T18:49:58;1.50;;;1.40;;
15183;SDS011;7693;49.266;7.104;2022-07-06T18:52:24;3.35;;;1.30;;
15183;SDS011;7693;49.266;7.104;2022-07-06T18:54:50;1.85;;;1.75;;
15183;SDS011;7693;49.266;7.104;2022-07-06T18:57:16;6.30;;;1.70;;
15183;SDS011;7693;49.266;7.104;2022-07-06T18:59:41;2.55;;;1.55;;
15183;SDS011;7693;49.266;7.104;2022-07-06T19:02:07;2.53;;;1.60;;
15183;SDS011;7693;49.266;7.104;2022-07-06T19:04:32;2.15;;;1.55;;
15183;SDS011;7693;49.266;7.104;2022-07-06T19:06:58;2.15;;;1.50;;
15183;SDS011;7693;49.266;7.104;2022-07-06T19:09:24;2.35;;;1.50;;
15183;SDS011;7693;49.266;7.104;2022-07-06T19:11:49;1.48;;;1.38;;
15183;SDS011;7693;49.266;7.104;2022-07-06T19:14:15;1.90;;;1.50;;
15183;SDS011;7693;49.266;7.104;2022-07-06T19:16:41;3.33;;;1.50;;
15183;SDS011;7693;49.266;7.104;2022-07-06T19:19:06;2.33;;;1.40;;
15183;SDS011;7693;49.266;7.104;2022-07-06T19:21:32;1.88;;;1.35;;
15183;SDS011;7693;49.266;7.104;2022-07-06T19:23:58;1.23;;;1.20;;
15183;SDS011;7693;49.266;7.104;2022-07-06T19:26:24;1.67;;;1.40;;
15183;SDS011;7693;49.266;7.104;2022-07-06T19:28:50;3.22;;;1.40;;
15183;SDS011;7693;49.266;7.104;2022-07-06T19:31:16;1.80;;;1.70;;
15183;SDS011;7693;49.266;7.104;2022-07-06T19:33:43;1.70;;;1.60;;
15183;SDS011;7693;49.266;7.104;2022-07-06T19:36:10;1.30;;;1.30;;
15183;SDS011;7693;49.266;7.104;2022-07-06T19:38:35;2.78;;;1.35;;
15183;SDS011;7693;49.266;7.104;2022-07-06T19:41:01;3.83;;;1.50;;
15183;SDS011;7693;49.266;7.104;2022-07-06T19:43:27;1.33;;;1.30;;
15183;SDS011;7693;49.266;7.104;2022-07-06T19:45:53;2.40;;;1.52;;
15183;SDS011;7693;49.266;7.104;2022-07-06T19:48:18;1.75;;;1.63;;
15183;SDS011;7693;49.266;7.104;2022-07-06T19:50:44;3.25;;;1.67;;
15183;SDS011;7693;49.266;7.104;2022-07-06T19:53:11;3.13;;;1.67;;
15183;SDS011;7693;49.266;7.104;2022-07-06T19:55:37;3.35;;;1.60;;
15183;SDS011;7693;49.266;7.104;2022-07-06T19:58:03;1.77;;;1.52;;
15183;SDS011;7693;49.266;7.104;2022-07-06T20:00:29;3.03;;;1.38;;
15183;SDS011;7693;49.266;7.104;2022-07-06T20:02:54;2.80;;;1.60;;
15183;SDS011;7693;49.266;7.104;2022-07-06T20:05:20;1.40;;;1.30;;
15183;SDS011;7693;49.266;7.104;2022-07-06T20:07:45;3.05;;;1.58;;
15183;SDS011;7693;49.266;7.104;2022-07-06T20:10:11;1.52;;;1.48;;
15183;SDS011;7693;49.266;7.104;2022-07-06T20:12:37;3.90;;;2.03;;
15183;SDS011;7693;49.266;7.104;2022-07-06T20:15:03;1.52;;;1.42;;
15183;SDS011;7693;49.266;7.104;2022-07-06T20:17:28;1.70;;;1.60;;
15183;SDS011;7693;49.266;7.104;2022-07-06T20:19:54;2.08;;;1.80;;
15183;SDS011;7693;49.266;7.104;2022-07-06T20:22:20;2.65;;;1.70;;
15183;SDS011;7693;49.266;7.104;2022-07-06T20:24:45;1.75;;;1.65;;
15183;SDS011;7693;49.266;7.104;2022-07-06T20:27:11;2.38;;;1.55;;